Medicine Hat Airport, Alberta

Past 24 Hour Conditions

Date / Time
(MDT)
Conditions Temp
(°F)
Humidity
(%)
Dew Point
(°F)
Wind
(mph)
Pressure
(inches)
Visibility
(miles)
30 March 2015
4:00 Clear 44 71 35 WNW 14 30.0 10
3:00 Clear 43 73 35 W 8 30.0 10
2:00 Clear 45 69 35 S 10 29.9 10
1:00 Clear 49 59 36 WSW 18 29.9 10
00:00 Clear 51 56 36 WSW 23 gust 30 29.9 10
29 March 2015
23:00 Clear 51 53 35 WSW 23 gust 34 29.9 10
22:00 Clear 53 50 35 WSW 24 gust 36 29.9 10
21:00 Partly Cloudy 52 52 35 SW 19 gust 27 29.9 15
20:00 Mostly Cloudy 53 50 35 SSW 14 29.9 30
19:00 Mostly Cloudy 56 44 35 SW 19 gust 28 29.9 30
18:00 Mostly Cloudy 62 33 33 WSW 30 gust 41 29.9 30
17:00 Partly Cloudy 64   30 32 WSW 24 gust 31 29.9 30
16:00 Partly Cloudy 64   28 31 WSW 27 gust 34 29.9 30
15:00 Mostly Cloudy 63 29 30 WSW 23 gust 29 29.9 30
14:00 Mostly Cloudy 61 35 33 SW 23 29.9 30
13:00 Mostly Cloudy 59 37 32 WSW 18 gust 27 30.0 30
12:00 Mostly Cloudy 56 49 37 WSW 19 30.0 30
11:00 Mostly Cloudy 53 56 38 WSW 20 30.0 30
10:00 Mostly Cloudy 50 65 39 SW 15 gust 22 30.0 30
9:00 Partly Cloudy 43 74 35 SW 16 30.1 30
8:00 Mainly Sunny 38 82 33 SSW 14 30.1 30
7:00 Partly Cloudy 35   90 33 SSW 10 30.1 30
6:00 Clear 35   92 33 SW 9 30.1 10
5:00 Clear 36 91 34 SSW 10 30.1 10
4:00 Mainly Clear 37 93 36 SSW 11 30.1 10
N/A Not available
↑ Highest temperature
↓ Lowest temperature

If you require additional historical weather information, please visit Climate Data Online.

What we are doing

Date modified: